San Angelo's Hourly Summary for Wednesday, July 11, 2018
Hour Temp
(f)
RH
(%)
Solar Rad.
(MJ/m2)
Rainfall
(in)
Wind
(mph)
7/11/2018 12:00 AM 82 39 0 0 5.28
7/11/2018 1:00 AM 79 46 0 0 6.48
7/11/2018 2:00 AM 78 55 0 0 6.58
7/11/2018 3:00 AM 77 59 0 0 6.14
7/11/2018 4:00 AM 76 61 0 0 5.54
7/11/2018 5:00 AM 75 63 0 0 4.08
7/11/2018 6:00 AM 74 68 0 0 2.35
7/11/2018 7:00 AM 73 74 0.01 0 3.27
7/11/2018 8:00 AM 73 76 0.29 0 4.05
7/11/2018 9:00 AM 76 71 0.94 0 6.73
7/11/2018 10:00 AM 81 58 1.57 0 6.77
7/11/2018 11:00 AM 84 51 2.25 0 8.39
7/11/2018 12:00 PM 87 43 2.75 0 7.19
7/11/2018 1:00 PM 90 37 3.07 0 7.05
7/11/2018 2:00 PM 92 29 3.38 0 8.34
7/11/2018 3:00 PM 93 26 3.25 0 7.52
7/11/2018 4:00 PM 94 24 2.72 0 7.28
7/11/2018 5:00 PM 95 27 2.27 0 7.76
7/11/2018 6:00 PM 96 24 2.1 0 7.89
7/11/2018 7:00 PM 96 22 1.38 0 7.45
7/11/2018 8:00 PM 95 23 0.61 0 7.32
7/11/2018 9:00 PM 94 26 0.09 0 6.96
7/11/2018 10:00 PM 91 30 0 0 5.75
7/11/2018 11:00 PM 89 32 0 0 5.95
Data Summary 85 44 26.68 0.00 6.34